Time;durP1;ratioP1;P1;durP2;ratioP2;P2;SDS_P1;SDS_P2;PMS_P1;PMS_P2;Temp;Humidity;BMP_temperature;BMP_pressure;BME280_temperature;BME280_humidity;BME280_pressure;Samples;Min_cycle;Max_cycle;Signal;HPM_P1;HPM_P2
2022/07/11 00:02:28;;;;;;;1.83;1.73;;;18.50;78.90;;;;;;10516345;28;20228;-79
2022/07/11 00:07:31;;;;;;;2.40;1.90;;;18.40;80.70;;;;;;10522365;28;20285;-80
2022/07/11 00:12:34;;;;;;;1.63;1.50;;;18.40;81.10;;;;;;10506062;28;20224;-80
2022/07/11 00:17:36;;;;;;;1.87;1.70;;;18.40;81.00;;;;;;10502045;28;20216;-80
2022/07/11 00:22:39;;;;;;;1.97;1.60;;;18.40;81.30;;;;;;10511556;28;20647;-79
2022/07/11 00:27:41;;;;;;;1.63;1.53;;;18.40;81.10;;;;;;10507542;28;20231;-79
2022/07/11 00:32:43;;;;;;;2.83;1.70;;;18.40;80.40;;;;;;10500694;28;20224;-79
2022/07/11 00:37:47;;;;;;;1.80;1.70;;;18.40;80.90;;;;;;10495068;28;20316;-79
2022/07/11 00:42:49;;;;;;;1.97;1.87;;;18.30;80.90;;;;;;10521940;22;20229;-81
2022/07/11 00:47:51;;;;;;;5.60;1.67;;;18.30;81.30;;;;;;10493857;28;20200;-81
2022/07/11 00:52:57;;;;;;;1.63;1.53;;;18.30;82.00;;;;;;10503274;28;20270;-81
2022/07/11 00:58:01;;;;;;;2.20;2.00;;;18.30;81.30;;;;;;10506678;28;20188;-81
2022/07/11 01:03:04;;;;;;;1.80;1.70;;;18.20;82.30;;;;;;10509445;28;20236;-81
2022/07/11 01:08:07;;;;;;;2.60;2.40;;;18.20;82.50;;;;;;10507202;28;20235;-81
2022/07/11 01:13:09;;;;;;;2.10;2.00;;;18.10;81.70;;;;;;10511106;28;20223;-82
2022/07/11 01:18:11;;;;;;;2.70;2.47;;;18.10;83.30;;;;;;10516118;28;20546;-81
2022/07/11 01:23:15;;;;;;;2.63;2.47;;;18.00;83.70;;;;;;10536907;28;20212;-81
2022/07/11 01:28:17;;;;;;;2.40;2.30;;;18.10;82.80;;;;;;10544592;28;20200;-81
2022/07/11 01:33:19;;;;;;;2.57;2.43;;;18.10;82.70;;;;;;10526280;28;20220;-82
2022/07/11 01:38:22;;;;;;;3.13;2.97;;;18.00;84.80;;;;;;10524243;28;20242;-82
2022/07/11 01:43:25;;;;;;;2.50;2.40;;;18.00;84.80;;;;;;10552170;28;20281;-82
2022/07/11 01:48:27;;;;;;;2.90;2.70;;;18.10;85.10;;;;;;10554798;28;20195;-82
2022/07/11 01:53:30;;;;;;;2.70;2.60;;;18.10;85.40;;;;;;10542326;28;20246;-81
2022/07/11 01:58:33;;;;;;;2.93;2.80;;;18.20;85.30;;;;;;10522234;28;20254;-82
2022/07/11 02:03:38;;;;;;;3.20;3.00;;;18.20;85.90;;;;;;10533382;28;20247;-82
2022/07/11 02:08:42;;;;;;;2.67;2.57;;;18.30;84.10;;;;;;10515761;28;20264;-82
2022/07/11 02:13:44;;;;;;;2.70;2.57;;;18.30;84.30;;;;;;10494803;28;20247;-82
2022/07/11 02:18:46;;;;;;;3.40;3.20;;;18.30;85.40;;;;;;10520368;28;20249;-82
2022/07/11 02:23:49;;;;;;;2.77;2.67;;;18.30;85.30;;;;;;10535322;28;20621;-81
2022/07/11 02:28:52;;;;;;;2.57;2.47;;;18.30;86.00;;;;;;10519014;28;20196;-81
2022/07/11 02:33:54;;;;;;;2.73;2.60;;;18.40;86.90;;;;;;10516872;28;20703;-81
2022/07/11 02:38:57;;;;;;;3.67;3.23;;;18.50;85.50;;;;;;10519038;28;20219;-82
2022/07/11 02:43:59;;;;;;;3.00;2.80;;;18.50;86.60;;;;;;10532879;28;20247;-82
2022/07/11 02:49:01;;;;;;;3.23;3.10;;;18.50;85.70;;;;;;10509933;28;20197;-82
2022/07/11 02:54:05;;;;;;;2.60;2.50;;;18.60;84.90;;;;;;10525691;28;20584;-82
2022/07/11 02:59:07;;;;;;;3.00;2.80;;;18.60;85.40;;;;;;10513092;28;20218;-81
2022/07/11 03:04:09;;;;;;;2.87;2.77;;;18.60;85.70;;;;;;10533850;28;20224;-81
2022/07/11 03:09:12;;;;;;;2.60;2.50;;;18.60;85.90;;;;;;10515836;28;20670;-82
2022/07/11 03:14:15;;;;;;;3.17;3.03;;;18.70;86.50;;;;;;10523728;28;20213;-82
2022/07/11 03:19:17;;;;;;;3.53;3.33;;;18.70;85.60;;;;;;10530386;28;20282;-81
2022/07/11 03:24:20;;;;;;;3.57;3.33;;;18.80;86.30;;;;;;10524039;28;20247;-82
2022/07/11 03:29:22;;;;;;;2.87;2.77;;;18.90;84.80;;;;;;10527373;28;20257;-82
2022/07/11 03:34:24;;;;;;;3.20;3.00;;;18.90;85.00;;;;;;10509693;28;20216;-81
2022/07/11 03:39:28;;;;;;;3.37;3.10;;;18.90;84.60;;;;;;10503051;28;20210;-81
2022/07/11 03:44:30;;;;;;;3.47;3.27;;;18.90;85.70;;;;;;10512688;28;20227;-81
2022/07/11 03:49:32;;;;;;;4.50;2.97;;;18.90;84.60;;;;;;10503374;28;20578;-82
2022/07/11 03:54:35;;;;;;;3.20;3.00;;;19.00;84.50;;;;;;10514186;28;20219;-82
2022/07/11 03:59:37;;;;;;;3.33;3.23;;;19.00;84.80;;;;;;10507196;28;20200;-82
2022/07/11 04:04:39;;;;;;;3.47;3.30;;;19.00;86.00;;;;;;10494833;28;20251;-81
2022/07/11 04:09:44;;;;;;;3.90;3.70;;;19.10;85.20;;;;;;10496644;28;20201;-82
2022/07/11 04:14:46;;;;;;;4.07;3.80;;;19.10;85.70;;;;;;10527506;28;20718;-81
2022/07/11 04:19:48;;;;;;;4.00;3.50;;;19.10;85.90;;;;;;10517872;28;20204;-82
2022/07/11 04:24:51;;;;;;;3.30;3.13;;;19.10;86.30;;;;;;10510550;28;20299;-82
2022/07/11 04:29:53;;;;;;;4.60;4.30;;;19.10;85.10;;;;;;10509194;28;20200;-81
2022/07/11 04:34:55;;;;;;;4.23;3.70;;;19.20;86.30;;;;;;10511108;28;20246;-81
2022/07/11 04:39:59;;;;;;;3.90;3.70;;;19.20;86.10;;;;;;10498041;28;20211;-82
2022/07/11 04:45:01;;;;;;;4.40;4.10;;;19.30;86.00;;;;;;10501504;28;20244;-81
2022/07/11 04:50:03;;;;;;;4.70;4.40;;;19.40;86.40;;;;;;10510358;28;20205;-82
2022/07/11 04:55:08;;;;;;;4.93;4.63;;;19.40;86.80;;;;;;10505222;28;20271;-81
2022/07/11 05:00:11;;;;;;;4.97;4.67;;;19.50;86.00;;;;;;10539104;28;20206;-81
2022/07/11 05:05:13;;;;;;;4.57;4.27;;;19.60;86.70;;;;;;10552787;28;20224;-81
2022/07/11 05:10:17;;;;;;;5.10;4.80;;;19.70;86.40;;;;;;10543703;28;20192;-81
2022/07/11 05:15:19;;;;;;;4.70;4.40;;;19.80;84.20;;;;;;10540655;28;20332;-81
2022/07/11 05:20:21;;;;;;;4.73;4.40;;;19.80;84.80;;;;;;10530408;28;20228;-81
2022/07/11 05:25:24;;;;;;;4.70;4.40;;;19.90;85.10;;;;;;10535813;28;20223;-81
2022/07/11 05:30:26;;;;;;;4.60;4.30;;;20.00;85.60;;;;;;10513164;28;20204;-81
2022/07/11 05:35:29;;;;;;;4.50;4.10;;;20.10;85.40;;;;;;10509531;28;20210;-81
2022/07/11 05:40:32;;;;;;;4.60;4.30;;;20.20;85.50;;;;;;10528565;28;20282;-82
2022/07/11 05:45:34;;;;;;;5.53;5.03;;;20.30;84.70;;;;;;10536766;28;20243;-83
2022/07/11 05:50:36;;;;;;;4.80;4.50;;;20.40;83.80;;;;;;10520689;28;20239;-82
2022/07/11 05:55:40;;;;;;;4.47;4.13;;;20.50;84.70;;;;;;10546839;28;20228;-82
2022/07/11 06:00:42;;;;;;;4.67;4.37;;;20.60;83.90;;;;;;10532492;28;20211;-82
2022/07/11 06:05:44;;;;;;;5.50;5.07;;;20.70;83.50;;;;;;10533038;28;20219;-81
2022/07/11 06:10:47;;;;;;;5.07;4.77;;;20.90;83.90;;;;;;10541178;28;20625;-81
2022/07/11 06:15:49;;;;;;;6.10;5.50;;;21.10;83.50;;;;;;10549331;28;20222;-81
2022/07/11 06:20:52;;;;;;;5.10;4.80;;;21.20;81.70;;;;;;10553832;28;20201;-83
2022/07/11 06:25:55;;;;;;;5.27;4.97;;;21.20;81.00;;;;;;10516012;28;20228;-82
2022/07/11 06:30:57;;;;;;;5.17;4.77;;;21.20;80.90;;;;;;10547282;28;20192;-81
2022/07/11 06:35:59;;;;;;;5.20;4.80;;;21.20;81.10;;;;;;10546045;28;20252;-82
2022/07/11 06:41:03;;;;;;;6.03;4.90;;;21.20;81.00;;;;;;10534264;28;20196;-82
2022/07/11 06:46:05;;;;;;;5.40;5.00;;;21.20;81.40;;;;;;10565408;22;20240;-83
2022/07/11 06:51:08;;;;;;;5.03;4.60;;;21.30;81.40;;;;;;10506868;28;20201;-80
2022/07/11 06:56:11;;;;;;;5.43;5.00;;;21.40;81.80;;;;;;10515231;28;20223;-80
2022/07/11 07:01:13;;;;;;;5.90;4.40;;;21.60;80.80;;;;;;10542178;28;20715;-80
2022/07/11 07:06:16;;;;;;;5.40;4.90;;;21.70;81.00;;;;;;10546674;28;20212;-82
2022/07/11 07:11:19;;;;;;;5.03;4.63;;;21.90;80.00;;;;;;10543076;28;20580;-82
2022/07/11 07:16:21;;;;;;;4.57;4.27;;;22.10;79.70;;;;;;10541670;28;20624;-80
2022/07/11 07:21:23;;;;;;;5.00;4.50;;;22.40;79.00;;;;;;10541609;28;20284;-79
2022/07/11 07:26:27;;;;;;;3.80;3.60;;;22.50;77.90;;;;;;10535876;28;20222;-79
2022/07/11 07:31:29;;;;;;;4.83;4.43;;;22.80;77.60;;;;;;10539783;28;20621;-79
2022/07/11 07:36:31;;;;;;;4.43;4.13;;;23.00;77.80;;;;;;10541353;28;20236;-81
2022/07/11 07:41:35;;;;;;;3.97;3.77;;;23.20;76.00;;;;;;10525624;28;20228;-80
2022/07/11 07:46:37;;;;;;;8.90;3.57;;;23.40;76.00;;;;;;10540515;28;20235;-80
2022/07/11 07:51:39;;;;;;;4.87;3.43;;;23.70;75.70;;;;;;10537285;28;20228;-78
2022/07/11 07:56:42;;;;;;;3.43;3.20;;;23.90;76.10;;;;;;10542044;28;20216;-79
2022/07/11 08:01:45;;;;;;;2.90;2.77;;;24.30;75.10;;;;;;10532950;28;20209;-79
2022/07/11 08:06:47;;;;;;;3.47;3.27;;;24.60;72.40;;;;;;10540448;28;20212;-79
2022/07/11 08:11:51;;;;;;;3.30;3.03;;;24.80;69.80;;;;;;10536222;28;20199;-79
2022/07/11 08:16:53;;;;;;;2.97;2.87;;;25.00;71.40;;;;;;10536119;28;20323;-81
2022/07/11 08:21:55;;;;;;;3.10;2.90;;;25.00;70.60;;;;;;10534244;28;20206;-79
2022/07/11 08:26:59;;;;;;;2.90;2.80;;;24.90;71.50;;;;;;10529433;28;20218;-79
2022/07/11 08:32:04;;;;;;;3.17;3.07;;;24.80;71.40;;;;;;10521835;28;20657;-79
2022/07/11 08:37:06;;;;;;;3.50;3.20;;;25.00;69.50;;;;;;10532951;28;20661;-78
2022/07/11 08:42:10;;;;;;;3.00;2.80;;;25.30;70.10;;;;;;10540439;28;20280;-79
2022/07/11 08:47:12;;;;;;;1.93;1.83;;;25.80;67.80;;;;;;10509366;28;20255;-79
2022/07/11 08:52:19;;;;;;;2.87;2.73;;;26.40;66.10;;;;;;10532421;28;20199;-78
2022/07/11 08:57:22;;;;;;;2.87;2.67;;;27.10;63.90;;;;;;10535006;28;20601;-79
2022/07/11 09:02:26;;;;;;;2.60;2.50;;;27.50;63.90;;;;;;10534430;28;20287;-79
2022/07/11 09:07:28;;;;;;;2.60;2.50;;;28.10;60.30;;;;;;10528824;28;20266;-79
2022/07/11 09:12:32;;;;;;;3.23;2.00;;;28.70;58.50;;;;;;10531518;28;20202;-78
2022/07/11 09:17:35;;;;;;;2.43;2.23;;;29.10;58.70;;;;;;10539707;28;20227;-81
2022/07/11 09:28:01;;;;;;;2.50;2.40;;;30.10;56.40;;;;;;10526207;28;20199;-80
2022/07/11 09:33:07;;;;;;;2.17;2.07;;;30.50;56.00;;;;;;10529189;28;20216;-83
2022/07/11 09:38:10;;;;;;;3.10;2.53;;;30.70;54.40;;;;;;10537976;28;20306;-82
2022/07/11 09:43:14;;;;;;;3.07;2.73;;;30.20;55.00;;;;;;10536055;28;20238;-80
2022/07/11 09:48:16;;;;;;;5.00;2.30;;;29.40;56.30;;;;;;10541627;28;20196;-80
2022/07/11 09:53:18;;;;;;;2.23;2.13;;;29.20;56.30;;;;;;10545537;28;20261;-80
2022/07/11 09:58:31;;;;;;;2.30;2.10;;;28.90;57.00;;;;;;10556412;28;20259;-80
2022/07/11 10:03:34;;;;;;;2.20;2.10;;;28.50;57.70;;;;;;10546130;28;20302;-83
2022/07/11 10:08:36;;;;;;;1.90;1.80;;;28.20;59.00;;;;;;10532278;28;20204;-82
2022/07/11 10:13:40;;;;;;;2.33;2.23;;;27.80;58.50;;;;;;10540135;28;20311;-82
2022/07/11 10:18:50;;;;;;;2.00;1.90;;;27.40;58.80;;;;;;10538491;28;20687;-80
2022/07/11 10:23:57;;;;;;;2.00;1.90;;;27.20;58.10;;;;;;10542933;28;20225;-79
2022/07/11 10:29:05;;;;;;;1.37;1.27;;;26.90;58.70;;;;;;10536136;28;20392;-79
2022/07/11 10:34:10;;;;;;;2.00;1.90;;;26.60;59.80;;;;;;10543864;28;20326;-82
2022/07/11 10:39:18;;;;;;;2.03;1.93;;;26.40;60.70;;;;;;10538277;28;20671;-79
2022/07/11 10:44:22;;;;;;;5.00;4.17;;;26.50;60.40;;;;;;10538101;28;20235;-81
2022/07/11 10:49:38;;;;;;;2.23;2.13;;;26.60;61.50;;;;;;10544787;28;20206;-81
2022/07/11 10:55:00;;;;;;;6.13;5.60;;;26.70;59.70;;;;;;10536719;28;20226;-82
2022/07/11 11:00:08;;;;;;;2.10;2.00;;;26.60;59.60;;;;;;10537406;28;20664;-81
2022/07/11 11:05:10;;;;;;;2.07;1.60;;;26.70;60.20;;;;;;10531144;28;20224;-78
2022/07/11 11:10:46;;;;;;;5.23;2.30;;;26.80;59.80;;;;;;10543189;28;20200;-81
2022/07/11 11:15:51;;;;;;;3.90;2.50;;;26.90;60.30;;;;;;10531159;28;20216;-81
2022/07/11 11:21:15;;;;;;;2.23;2.10;;;26.80;59.00;;;;;;10547124;28;20196;-80
2022/07/11 11:26:20;;;;;;;2.30;2.20;;;26.70;59.10;;;;;;10531141;28;20230;-81
2022/07/11 11:31:24;;;;;;;2.10;1.83;;;26.70;59.10;;;;;;10530490;28;20290;-80
2022/07/11 11:36:28;;;;;;;2.53;2.43;;;26.80;59.20;;;;;;10532114;28;20232;-81
2022/07/11 11:41:32;;;;;;;2.10;2.00;;;26.80;58.10;;;;;;10535764;28;20199;-80
2022/07/11 11:46:36;;;;;;;2.03;1.90;;;26.60;58.90;;;;;;10541248;28;20232;-80
2022/07/11 11:51:39;;;;;;;2.50;2.30;;;26.20;59.60;;;;;;10536983;28;20229;-80
2022/07/11 11:56:42;;;;;;;1.80;1.70;;;25.70;61.40;;;;;;10544529;28;20223;-81
2022/07/11 12:01:46;;;;;;;2.23;2.10;;;25.40;61.50;;;;;;10538759;28;20210;-81
2022/07/11 12:06:50;;;;;;;3.50;2.40;;;25.30;65.10;;;;;;10527822;28;20220;-79
2022/07/11 12:12:43;;;;;;;2.00;1.90;;;25.40;63.40;;;;;;10530146;28;20231;-81
2022/07/11 12:17:16;;;;;;;2.40;2.30;;;25.50;64.80;;;;;;10521737;28;20376;-80
2022/07/11 12:22:18;;;;;;;2.20;2.10;;;25.60;62.80;;;;;;10524390;28;20207;-81
2022/07/11 12:27:22;;;;;;;2.27;2.17;;;25.70;63.60;;;;;;10527344;28;20224;-79
2022/07/11 12:32:25;;;;;;;4.60;2.67;;;25.80;63.40;;;;;;10538097;28;20703;-79
2022/07/11 12:37:38;;;;;;;2.43;2.23;;;25.80;62.60;;;;;;10531376;28;20266;-78
2022/07/11 12:42:40;;;;;;;2.30;2.20;;;25.90;62.40;;;;;;10524594;28;20245;-80
2022/07/11 12:47:46;;;;;;;3.50;2.40;;;25.90;61.20;;;;;;10512916;22;20703;-79
2022/07/11 12:52:50;;;;;;;2.30;2.20;;;26.10;61.80;;;;;;10485235;28;20207;-80
2022/07/11 12:58:05;;;;;;;2.30;2.03;;;26.20;61.90;;;;;;10482571;28;20314;-79
2022/07/11 13:03:09;;;;;;;2.70;1.87;;;26.30;62.40;;;;;;10477294;28;20219;-80
2022/07/11 13:13:41;;;;;;;2.80;2.60;;;26.40;62.40;;;;;;10520355;28;20315;-79
2022/07/11 13:18:46;;;;;;;2.87;2.67;;;26.40;62.20;;;;;;10482030;28;20237;-80
2022/07/11 13:23:48;;;;;;;2.40;2.30;;;26.30;64.00;;;;;;10487366;28;20216;-80
2022/07/11 13:28:50;;;;;;;2.50;2.40;;;26.40;63.50;;;;;;10477352;28;20660;-80
2022/07/11 13:33:56;;;;;;;2.50;2.40;;;26.40;63.60;;;;;;10486073;28;20224;-79
2022/07/11 13:38:58;;;;;;;3.27;2.97;;;26.40;63.20;;;;;;10474562;28;20600;-79
2022/07/11 13:44:02;;;;;;;2.73;2.53;;;26.40;63.10;;;;;;10486720;28;20319;-79
2022/07/11 13:49:05;;;;;;;2.70;2.50;;;26.40;63.20;;;;;;10478662;28;20250;-80
2022/07/11 13:54:14;;;;;;;2.50;2.37;;;26.40;62.30;;;;;;10466374;28;20235;-80
2022/07/11 13:59:16;;;;;;;3.33;2.40;;;26.40;62.20;;;;;;10483939;28;20234;-79
2022/07/11 14:04:19;;;;;;;8.77;2.70;;;26.40;64.20;;;;;;10488796;28;20300;-79
2022/07/11 14:09:21;;;;;;;2.57;2.47;;;26.40;62.80;;;;;;10491516;28;20554;-79
2022/07/11 14:14:24;;;;;;;2.83;2.63;;;26.40;63.60;;;;;;10479715;28;20251;-79
2022/07/11 14:19:27;;;;;;;3.17;2.97;;;26.30;63.10;;;;;;10473164;28;20228;-79
2022/07/11 14:24:29;;;;;;;2.67;2.47;;;26.20;63.80;;;;;;10489420;28;20259;-79
2022/07/11 14:29:32;;;;;;;2.43;2.33;;;26.20;63.50;;;;;;10475469;28;20242;-80
2022/07/11 14:34:35;;;;;;;2.87;2.67;;;26.10;64.30;;;;;;10487266;28;20217;-78
2022/07/11 14:39:37;;;;;;;3.20;2.20;;;26.10;63.80;;;;;;10500585;28;20801;-79
2022/07/11 14:44:40;;;;;;;3.13;2.67;;;26.00;65.50;;;;;;10500782;28;20763;-79
2022/07/11 14:49:43;;;;;;;3.00;2.80;;;26.00;64.90;;;;;;10495229;28;20205;-78
2022/07/11 14:54:45;;;;;;;4.80;4.40;;;26.00;66.40;;;;;;10501104;28;20250;-78
2022/07/11 14:59:47;;;;;;;2.60;2.40;;;26.00;67.20;;;;;;10477002;28;20262;-80
2022/07/11 15:04:51;;;;;;;3.20;3.00;;;25.80;64.00;;;;;;10487564;28;20224;-80
2022/07/11 15:15:13;;;;;;;3.63;3.40;;;25.40;66.80;;;;;;10491432;28;20220;-78
2022/07/11 15:20:16;;;;;;;3.30;3.10;;;25.30;68.30;;;;;;10493369;28;20235;-80
2022/07/11 15:25:19;;;;;;;3.47;3.13;;;25.20;68.50;;;;;;10493197;28;20294;-80
2022/07/11 15:30:21;;;;;;;3.03;2.90;;;25.20;66.70;;;;;;10497623;28;20203;-79
2022/07/11 15:35:25;;;;;;;3.70;3.50;;;25.10;67.80;;;;;;10485156;28;20677;-80
2022/07/11 15:40:27;;;;;;;2.90;2.70;;;25.00;66.80;;;;;;10471508;28;20228;-78
2022/07/11 15:45:29;;;;;;;3.40;3.20;;;24.90;68.00;;;;;;10487847;28;20238;-80
2022/07/11 15:50:33;;;;;;;3.20;2.90;;;24.90;67.40;;;;;;10486089;28;20205;-79
2022/07/11 15:55:35;;;;;;;3.93;3.63;;;24.80;66.80;;;;;;10483301;28;20696;-78
2022/07/11 16:00:38;;;;;;;3.37;3.13;;;24.60;67.60;;;;;;10491643;28;20600;-79
2022/07/11 16:05:42;;;;;;;3.10;2.90;;;24.40;67.70;;;;;;10492201;28;20224;-79
2022/07/11 16:10:45;;;;;;;3.00;2.90;;;24.30;69.40;;;;;;10483068;28;20263;-80
2022/07/11 16:15:48;;;;;;;2.73;2.63;;;24.20;68.80;;;;;;10463136;28;20223;-78
2022/07/11 16:20:52;;;;;;;3.37;3.07;;;24.00;68.30;;;;;;10485657;28;20204;-80
2022/07/11 16:25:54;;;;;;;3.13;2.93;;;23.90;69.50;;;;;;10490893;28;20234;-78
2022/07/11 16:30:56;;;;;;;3.77;3.50;;;23.90;69.50;;;;;;10492160;28;20232;-79
2022/07/11 16:36:00;;;;;;;3.30;3.00;;;23.80;71.80;;;;;;10479411;28;20232;-79
2022/07/11 16:46:21;;;;;;;3.60;3.40;;;23.80;70.00;;;;;;10484004;28;20216;-78
2022/07/11 16:51:25;;;;;;;3.27;3.10;;;23.80;69.10;;;;;;10466000;28;20209;-79
2022/07/11 16:56:27;;;;;;;3.97;3.47;;;23.80;69.20;;;;;;10485263;28;20224;-79
2022/07/11 17:01:30;;;;;;;3.13;2.93;;;23.90;68.30;;;;;;10490801;28;20243;-79
2022/07/11 17:06:34;;;;;;;2.97;2.77;;;23.80;68.50;;;;;;10491326;28;20236;-79
2022/07/11 17:11:36;;;;;;;3.33;3.00;;;23.80;69.60;;;;;;10500990;28;20207;-79
2022/07/11 17:16:38;;;;;;;2.23;2.13;;;23.80;67.50;;;;;;10491115;28;20221;-78
2022/07/11 17:21:42;;;;;;;3.07;2.87;;;23.80;67.20;;;;;;10478866;28;20197;-77
2022/07/11 17:26:44;;;;;;;2.60;2.50;;;23.70;69.10;;;;;;10486000;28;20213;-78
2022/07/11 17:31:47;;;;;;;3.03;2.83;;;23.70;69.80;;;;;;10499788;28;20624;-77
2022/07/11 17:36:51;;;;;;;3.57;2.90;;;23.70;71.30;;;;;;10479517;28;20228;-78
2022/07/11 17:41:53;;;;;;;3.30;3.10;;;23.60;72.00;;;;;;10473879;28;20193;-77
2022/07/11 17:46:55;;;;;;;2.70;2.50;;;23.60;68.60;;;;;;10480488;28;20228;-77
2022/07/11 17:52:00;;;;;;;2.70;2.50;;;23.60;68.00;;;;;;10447057;28;20202;-78
2022/07/11 17:57:02;;;;;;;2.70;2.60;;;23.50;68.20;;;;;;10451332;28;20231;-77
2022/07/11 18:02:08;;;;;;;3.20;2.97;;;23.60;67.90;;;;;;10472346;28;20569;-81
2022/07/11 18:07:12;;;;;;;2.80;2.70;;;23.50;69.10;;;;;;10483920;28;20290;-79
2022/07/11 18:12:14;;;;;;;3.13;2.93;;;23.50;68.80;;;;;;10481561;28;20283;-80
2022/07/11 18:17:16;;;;;;;3.07;2.87;;;23.50;69.20;;;;;;10478408;28;20256;-80
2022/07/11 18:22:20;;;;;;;2.80;2.70;;;23.50;70.00;;;;;;10485479;28;20200;-79
2022/07/11 18:27:22;;;;;;;2.70;2.57;;;23.50;71.00;;;;;;10470060;28;20247;-80
2022/07/11 18:32:24;;;;;;;2.70;2.60;;;23.40;71.70;;;;;;10484401;28;20201;-79
2022/07/11 18:37:28;;;;;;;2.80;2.70;;;23.40;71.70;;;;;;10468601;28;20256;-79
2022/07/11 18:42:30;;;;;;;2.10;2.00;;;23.30;75.00;;;;;;10471834;28;20699;-79
2022/07/11 18:47:32;;;;;;;3.67;3.47;;;23.20;74.40;;;;;;10527543;22;20255;-78
2022/07/11 18:52:36;;;;;;;4.40;4.00;;;23.20;73.10;;;;;;10520385;28;20663;-76
2022/07/11 18:57:38;;;;;;;6.10;5.50;;;23.10;76.30;;;;;;10526970;28;20208;-77
2022/07/11 19:02:40;;;;;;;3.63;3.33;;;23.00;74.80;;;;;;10517160;28;20284;-77
2022/07/11 19:07:44;;;;;;;3.47;3.27;;;22.90;74.00;;;;;;10493146;28;20312;-78
2022/07/11 19:12:46;;;;;;;3.77;3.57;;;22.80;74.80;;;;;;10507046;28;20206;-78
2022/07/11 19:17:48;;;;;;;3.17;3.00;;;22.60;74.80;;;;;;10517633;28;20220;-81
2022/07/11 19:22:52;;;;;;;2.60;2.50;;;22.50;75.50;;;;;;10513955;28;20428;-81
2022/07/11 19:27:54;;;;;;;4.03;3.47;;;22.30;75.60;;;;;;10515603;28;20702;-80
2022/07/11 19:32:57;;;;;;;3.40;3.20;;;22.20;75.90;;;;;;10525345;28;20214;-79
2022/07/11 19:38:03;;;;;;;3.80;3.50;;;22.10;75.80;;;;;;10517460;28;20232;-82
2022/07/11 19:43:06;;;;;;;3.70;3.50;;;22.00;76.00;;;;;;10496845;28;20668;-79
2022/07/11 19:48:08;;;;;;;3.67;3.43;;;21.80;76.20;;;;;;10507521;28;20543;-81
2022/07/11 19:53:12;;;;;;;3.57;3.40;;;21.70;76.90;;;;;;10519180;28;20285;-80
2022/07/11 19:58:14;;;;;;;3.60;3.40;;;21.60;77.40;;;;;;10518354;28;20217;-81
2022/07/11 20:03:18;;;;;;;3.97;3.77;;;21.50;77.90;;;;;;10514643;28;20265;-79
2022/07/11 20:08:22;;;;;;;3.60;3.30;;;21.50;77.70;;;;;;10516605;28;20208;-80
2022/07/11 20:13:24;;;;;;;3.60;3.40;;;21.60;77.90;;;;;;10491869;28;20229;-80
2022/07/11 20:18:26;;;;;;;3.90;3.70;;;21.50;78.30;;;;;;10501690;28;20262;-79
2022/07/11 20:23:30;;;;;;;3.30;3.10;;;21.50;78.70;;;;;;10502132;28;20204;-80
2022/07/11 20:28:34;;;;;;;3.30;3.10;;;21.40;78.70;;;;;;10505599;28;20288;-79
2022/07/11 20:33:38;;;;;;;4.20;3.90;;;21.30;79.30;;;;;;10509366;28;20208;-78
2022/07/11 20:38:41;;;;;;;3.70;3.50;;;21.30;79.80;;;;;;10487119;28;20231;-79
2022/07/11 20:43:44;;;;;;;3.73;3.43;;;21.30;79.80;;;;;;10526289;28;20236;-78
2022/07/11 20:48:47;;;;;;;4.93;3.60;;;21.30;80.00;;;;;;10513106;28;20242;-79
2022/07/11 20:53:50;;;;;;;6.57;3.90;;;21.20;80.40;;;;;;10515365;28;20258;-80
2022/07/11 20:58:52;;;;;;;3.93;3.63;;;21.10;81.10;;;;;;10520671;28;20265;-79
2022/07/11 21:03:54;;;;;;;3.93;3.73;;;21.10;82.00;;;;;;10520867;28;20219;-82
2022/07/11 21:08:58;;;;;;;5.00;3.30;;;21.10;80.90;;;;;;10513480;28;20204;-81
2022/07/11 21:14:00;;;;;;;3.47;3.27;;;21.10;81.60;;;;;;10523158;28;20220;-80
2022/07/11 21:19:03;;;;;;;4.10;3.60;;;21.10;81.10;;;;;;10523062;28;20232;-79
2022/07/11 21:24:07;;;;;;;4.07;3.77;;;21.10;81.70;;;;;;10482639;28;20223;-80
2022/07/11 21:29:09;;;;;;;4.27;3.97;;;21.10;81.60;;;;;;10509205;28;20224;-80
2022/07/11 21:34:12;;;;;;;4.13;3.60;;;21.10;82.00;;;;;;10524582;28;20281;-80
2022/07/11 21:39:15;;;;;;;4.10;3.70;;;21.10;82.00;;;;;;10513378;28;20691;-79
2022/07/11 21:44:18;;;;;;;3.43;3.17;;;21.10;81.20;;;;;;10507921;28;20726;-80
2022/07/11 21:49:20;;;;;;;3.90;3.70;;;21.20;82.00;;;;;;10533360;28;20203;-80
2022/07/11 21:54:24;;;;;;;4.30;4.00;;;21.20;82.00;;;;;;10520305;28;20230;-80
2022/07/11 21:59:29;;;;;;;4.30;4.00;;;21.10;82.80;;;;;;10520454;28;20596;-80
2022/07/11 22:04:31;;;;;;;3.50;3.30;;;21.10;82.30;;;;;;10514617;28;20784;-80
2022/07/11 22:09:35;;;;;;;4.23;3.90;;;21.00;83.20;;;;;;10517169;28;20231;-80
2022/07/11 22:14:37;;;;;;;3.90;3.70;;;21.00;84.50;;;;;;10532067;28;20594;-80
2022/07/11 22:19:39;;;;;;;3.70;3.50;;;21.00;84.70;;;;;;10526357;28;20219;-80
2022/07/11 22:24:42;;;;;;;3.83;3.60;;;21.00;84.30;;;;;;10528041;28;20274;-80
2022/07/11 22:29:44;;;;;;;5.27;4.87;;;21.00;84.90;;;;;;10525600;28;20196;-80
2022/07/11 22:34:47;;;;;;;4.60;4.20;;;21.00;84.90;;;;;;10524664;28;20235;-79
2022/07/11 22:39:50;;;;;;;4.47;4.17;;;21.00;84.40;;;;;;10528280;28;20232;-80
2022/07/11 22:44:52;;;;;;;4.60;4.30;;;21.00;84.50;;;;;;10515288;28;20232;-80
2022/07/11 22:49:54;;;;;;;5.17;4.77;;;21.00;85.10;;;;;;10532740;28;20196;-80
2022/07/11 22:54:58;;;;;;;5.10;4.70;;;21.00;84.90;;;;;;10530557;28;20250;-80
2022/07/11 23:00:00;;;;;;;4.97;4.67;;;20.90;84.50;;;;;;10537339;28;20223;-80
2022/07/11 23:05:02;;;;;;;5.00;4.60;;;20.90;85.90;;;;;;10538634;28;20311;-80
2022/07/11 23:10:06;;;;;;;4.97;4.57;;;20.80;85.70;;;;;;10532448;28;20234;-80
2022/07/11 23:15:09;;;;;;;5.70;4.83;;;20.70;86.10;;;;;;10536159;28;20766;-80
2022/07/11 23:20:12;;;;;;;4.70;4.30;;;20.60;86.50;;;;;;10535682;28;20226;-80
2022/07/11 23:25:16;;;;;;;5.70;5.20;;;20.50;86.40;;;;;;10537284;28;20284;-80
2022/07/11 23:30:18;;;;;;;6.00;5.40;;;20.40;86.90;;;;;;10530415;28;20294;-80
2022/07/11 23:35:20;;;;;;;4.97;4.57;;;20.30;87.50;;;;;;10530394;28;20227;-80
2022/07/11 23:40:23;;;;;;;5.23;4.83;;;20.30;86.40;;;;;;10534357;28;20787;-79
2022/07/11 23:45:26;;;;;;;5.07;4.77;;;20.20;87.60;;;;;;10533030;28;20257;-80
2022/07/11 23:50:28;;;;;;;5.37;4.97;;;20.00;88.20;;;;;;10527654;28;20205;-79
2022/07/11 23:55:31;;;;;;;4.80;4.50;;;20.00;88.20;;;;;;10519336;28;20732;-79
